sensor_id;sensor_type;location;lat;lon;timestamp;pressure;altitude;pressure_sealevel;temperature;humidity
76108;BME280;64834;52.516;10.528;2023-05-24T00:02:14;101524.97;;;7.65;83.97
76108;BME280;64834;52.516;10.528;2023-05-24T00:04:40;101520.75;;;7.55;84.33
76108;BME280;64834;52.516;10.528;2023-05-24T00:07:05;101515.94;;;7.49;84.89
76108;BME280;64834;52.516;10.528;2023-05-24T00:09:31;101513.50;;;7.41;84.69
76108;BME280;64834;52.516;10.528;2023-05-24T00:11:57;101517.28;;;7.34;85.32
76108;BME280;64834;52.516;10.528;2023-05-24T00:14:22;101509.13;;;7.29;85.00
76108;BME280;64834;52.516;10.528;2023-05-24T00:16:47;101516.28;;;7.22;85.47
76108;BME280;64834;52.516;10.528;2023-05-24T00:19:13;101519.56;;;7.19;85.95
76108;BME280;64834;52.516;10.528;2023-05-24T00:21:46;101517.13;;;7.11;86.61
76108;BME280;64834;52.516;10.528;2023-05-24T00:24:12;101512.31;;;7.05;87.33
76108;BME280;64834;52.516;10.528;2023-05-24T00:26:38;101507.41;;;6.98;87.74
76108;BME280;64834;52.516;10.528;2023-05-24T00:29:03;101513.25;;;6.95;87.56
76108;BME280;64834;52.516;10.528;2023-05-24T00:31:28;101508.94;;;6.96;87.72
76108;BME280;64834;52.516;10.528;2023-05-24T00:33:54;101501.13;;;6.96;88.09
76108;BME280;64834;52.516;10.528;2023-05-24T00:36:19;101499.59;;;6.98;88.03
76108;BME280;64834;52.516;10.528;2023-05-24T00:38:45;101501.25;;;6.97;88.22
76108;BME280;64834;52.516;10.528;2023-05-24T00:41:10;101491.78;;;6.98;88.27
76108;BME280;64834;52.516;10.528;2023-05-24T00:43:35;101500.50;;;6.98;87.92
76108;BME280;64834;52.516;10.528;2023-05-24T00:46:15;101491.00;;;6.99;88.12
76108;BME280;64834;52.516;10.528;2023-05-24T00:48:42;101489.41;;;7.01;88.35
76108;BME280;64834;52.516;10.528;2023-05-24T00:51:09;101487.72;;;7.01;88.02
76108;BME280;64834;52.516;10.528;2023-05-24T00:53:36;101476.03;;;6.96;88.50
76108;BME280;64834;52.516;10.528;2023-05-24T00:56:02;101489.69;;;7.04;88.46
76108;BME280;64834;52.516;10.528;2023-05-24T00:58:29;101494.22;;;7.07;88.33
76108;BME280;64834;52.516;10.528;2023-05-24T01:00:59;101483.03;;;7.08;88.04
76108;BME280;64834;52.516;10.528;2023-05-24T01:03:26;101485.63;;;7.08;88.39
76108;BME280;64834;52.516;10.528;2023-05-24T01:06:02;101474.97;;;7.05;88.56
76108;BME280;64834;52.516;10.528;2023-05-24T01:11:16;101483.16;;;7.09;88.01
76108;BME280;64834;52.516;10.528;2023-05-24T01:13:53;101485.91;;;7.11;88.14
76108;BME280;64834;52.516;10.528;2023-05-24T01:16:26;101480.69;;;7.11;88.35
76108;BME280;64834;52.516;10.528;2023-05-24T01:18:56;101489.41;;;7.11;88.34
76108;BME280;64834;52.516;10.528;2023-05-24T01:21:36;101487.81;;;7.13;88.16
76108;BME280;64834;52.516;10.528;2023-05-24T01:26:43;101476.75;;;7.16;88.65
76108;BME280;64834;52.516;10.528;2023-05-24T01:29:12;101472.44;;;7.16;88.42
76108;BME280;64834;52.516;10.528;2023-05-24T01:31:38;101472.44;;;7.16;88.30
76108;BME280;64834;52.516;10.528;2023-05-24T01:34:05;101467.91;;;7.14;88.27
76108;BME280;64834;52.516;10.528;2023-05-24T01:36:30;101462.19;;;7.18;88.65
76108;BME280;64834;52.516;10.528;2023-05-24T01:38:55;101467.38;;;7.18;88.29
76108;BME280;64834;52.516;10.528;2023-05-24T01:41:31;101462.03;;;7.16;88.25
76108;BME280;64834;52.516;10.528;2023-05-24T01:44:06;101459.88;;;7.11;88.69
76108;BME280;64834;52.516;10.528;2023-05-24T01:46:36;101464.56;;;7.05;88.77
76108;BME280;64834;52.516;10.528;2023-05-24T01:49:11;101467.03;;;7.03;89.02
76108;BME280;64834;52.516;10.528;2023-05-24T01:51:45;101461.59;;;7.00;88.99
76108;BME280;64834;52.516;10.528;2023-05-24T01:54:13;101450.91;;;6.97;89.54
76108;BME280;64834;52.516;10.528;2023-05-24T01:56:40;101456.00;;;6.95;89.65
76108;BME280;64834;52.516;10.528;2023-05-24T01:59:07;101455.88;;;6.94;90.05
76108;BME280;64834;52.516;10.528;2023-05-24T02:01:34;101460.97;;;6.92;90.04
76108;BME280;64834;52.516;10.528;2023-05-24T02:04:00;101456.66;;;6.93;89.96
76108;BME280;64834;52.516;10.528;2023-05-24T02:06:25;101456.13;;;6.97;90.02
76108;BME280;64834;52.516;10.528;2023-05-24T02:08:50;101449.09;;;6.96;90.19
76108;BME280;64834;52.516;10.528;2023-05-24T02:11:17;101442.47;;;6.89;89.98
76108;BME280;64834;52.516;10.528;2023-05-24T02:13:42;101446.91;;;6.90;90.53
76108;BME280;64834;52.516;10.528;2023-05-24T02:16:08;101455.38;;;6.88;90.87
76108;BME280;64834;52.516;10.528;2023-05-24T02:18:34;101452.88;;;6.89;90.56
76108;BME280;64834;52.516;10.528;2023-05-24T02:21:00;101453.78;;;6.90;90.72
76108;BME280;64834;52.516;10.528;2023-05-24T02:23:26;101448.34;;;6.87;90.79
76108;BME280;64834;52.516;10.528;2023-05-24T02:25:52;101446.91;;;6.90;91.08
76108;BME280;64834;52.516;10.528;2023-05-24T02:28:17;101449.38;;;6.89;91.24
76108;BME280;64834;52.516;10.528;2023-05-24T02:30:42;101446.66;;;6.87;91.29
76108;BME280;64834;52.516;10.528;2023-05-24T02:33:09;101441.88;;;6.82;91.61
76108;BME280;64834;52.516;10.528;2023-05-24T02:35:35;101439.25;;;6.82;91.26
76108;BME280;64834;52.516;10.528;2023-05-24T02:38:00;101443.16;;;6.76;91.76
76108;BME280;64834;52.516;10.528;2023-05-24T02:40:27;101433.44;;;6.74;92.28
76108;BME280;64834;52.516;10.528;2023-05-24T02:42:53;101426.56;;;6.64;92.40
76108;BME280;64834;52.516;10.528;2023-05-24T02:45:18;101429.81;;;6.62;92.80
76108;BME280;64834;52.516;10.528;2023-05-24T02:47:43;101429.44;;;6.57;93.22
76108;BME280;64834;52.516;10.528;2023-05-24T02:50:10;101436.31;;;6.57;93.32
76108;BME280;64834;52.516;10.528;2023-05-24T02:52:35;101434.50;;;6.56;93.51
76108;BME280;64834;52.516;10.528;2023-05-24T02:55:01;101433.44;;;6.54;93.82
76108;BME280;64834;52.516;10.528;2023-05-24T02:57:26;101429.03;;;6.53;93.82
76108;BME280;64834;52.516;10.528;2023-05-24T02:59:52;101429.03;;;6.53;93.88
76108;BME280;64834;52.516;10.528;2023-05-24T03:02:18;101434.78;;;6.48;94.23
76108;BME280;64834;52.516;10.528;2023-05-24T03:04:46;101417.50;;;6.49;94.28
76108;BME280;64834;52.516;10.528;2023-05-24T03:07:11;101427.38;;;6.43;94.29
76108;BME280;64834;52.516;10.528;2023-05-24T03:09:36;101418.78;;;6.44;94.78
76108;BME280;64834;52.516;10.528;2023-05-24T03:12:01;101433.50;;;6.43;94.26
76108;BME280;64834;52.516;10.528;2023-05-24T03:14:27;101433.50;;;6.43;94.72
76108;BME280;64834;52.516;10.528;2023-05-24T03:16:52;101434.13;;;6.41;94.95
76108;BME280;64834;52.516;10.528;2023-05-24T03:19:18;101429.59;;;6.38;94.94
76108;BME280;64834;52.516;10.528;2023-05-24T03:21:43;101432.06;;;6.37;94.91
76108;BME280;64834;52.516;10.528;2023-05-24T03:24:08;101434.91;;;6.40;95.11
76108;BME280;64834;52.516;10.528;2023-05-24T03:26:34;101427.00;;;6.38;95.05
76108;BME280;64834;52.516;10.528;2023-05-24T03:28:59;101430.50;;;6.39;94.97
76108;BME280;64834;52.516;10.528;2023-05-24T03:31:24;101425.19;;;6.37;95.43
76108;BME280;64834;52.516;10.528;2023-05-24T03:33:50;101422.31;;;6.34;95.32
76108;BME280;64834;52.516;10.528;2023-05-24T03:36:16;101418.78;;;6.34;95.69
76108;BME280;64834;52.516;10.528;2023-05-24T03:38:41;101415.16;;;6.32;95.81
76108;BME280;64834;52.516;10.528;2023-05-24T03:41:06;101425.56;;;6.32;95.75
76108;BME280;64834;52.516;10.528;2023-05-24T03:43:32;101423.09;;;6.33;96.04
76108;BME280;64834;52.516;10.528;2023-05-24T03:45:57;101421.66;;;6.37;96.00
76108;BME280;64834;52.516;10.528;2023-05-24T03:48:23;101419.59;;;6.33;96.15
76108;BME280;64834;52.516;10.528;2023-05-24T03:50:48;101425.97;;;6.36;95.91
76108;BME280;64834;52.516;10.528;2023-05-24T03:53:14;101417.63;;;6.40;95.76
76108;BME280;64834;52.516;10.528;2023-05-24T03:55:39;101432.69;;;6.44;95.71
76108;BME280;64834;52.516;10.528;2023-05-24T03:58:04;101432.69;;;6.44;95.71
76108;BME280;64834;52.516;10.528;2023-05-24T04:00:30;101435.41;;;6.46;95.60
76108;BME280;64834;52.516;10.528;2023-05-24T04:02:55;101428.81;;;6.49;95.74
76108;BME280;64834;52.516;10.528;2023-05-24T04:05:21;101431.13;;;6.57;95.47
76108;BME280;64834;52.516;10.528;2023-05-24T04:07:50;101432.31;;;6.60;95.46
76108;BME280;64834;52.516;10.528;2023-05-24T04:10:16;101443.72;;;6.62;95.49
76108;BME280;64834;52.516;10.528;2023-05-24T04:12:41;101446.56;;;6.65;95.40
76108;BME280;64834;52.516;10.528;2023-05-24T04:15:07;101443.44;;;6.69;95.27
76108;BME280;64834;52.516;10.528;2023-05-24T04:17:32;101440.34;;;6.73;95.33
76108;BME280;64834;52.516;10.528;2023-05-24T04:19:59;101453.56;;;6.76;95.21
76108;BME280;64834;52.516;10.528;2023-05-24T04:22:24;101452.28;;;6.82;95.26
76108;BME280;64834;52.516;10.528;2023-05-24T04:24:49;101452.50;;;6.85;94.87
76108;BME280;64834;52.516;10.528;2023-05-24T04:27:15;101454.84;;;6.92;94.86
76108;BME280;64834;52.516;10.528;2023-05-24T04:29:43;101452.38;;;6.93;94.69
76108;BME280;64834;52.516;10.528;2023-05-24T04:32:09;101456.50;;;7.01;94.28
76108;BME280;64834;52.516;10.528;2023-05-24T04:34:35;101454.69;;;7.00;94.11
76108;BME280;64834;52.516;10.528;2023-05-24T04:37:01;101463.38;;;7.11;94.48
76108;BME280;64834;52.516;10.528;2023-05-24T04:39:27;101467.91;;;7.14;93.86
76108;BME280;64834;52.516;10.528;2023-05-24T04:41:53;101461.78;;;7.23;94.12
76108;BME280;64834;52.516;10.528;2023-05-24T04:44:19;101460.44;;;7.28;93.76
76108;BME280;64834;52.516;10.528;2023-05-24T04:46:44;101455.91;;;7.26;93.18
76108;BME280;64834;52.516;10.528;2023-05-24T04:49:10;101457.78;;;7.39;93.30
76108;BME280;64834;52.516;10.528;2023-05-24T04:51:35;101456.69;;;7.47;92.88
76108;BME280;64834;52.516;10.528;2023-05-24T04:54:03;101459.25;;;7.57;92.24
76108;BME280;64834;52.516;10.528;2023-05-24T04:56:33;101460.66;;;7.64;91.56
76108;BME280;64834;52.516;10.528;2023-05-24T04:58:58;101463.84;;;7.71;91.79
76108;BME280;64834;52.516;10.528;2023-05-24T05:01:23;101460.19;;;7.79;91.65
76108;BME280;64834;52.516;10.528;2023-05-24T05:03:48;101472.75;;;7.85;91.67
76108;BME280;64834;52.516;10.528;2023-05-24T05:06:14;101463.91;;;7.83;91.42
76108;BME280;64834;52.516;10.528;2023-05-24T05:08:39;101472.00;;;7.86;91.40
76108;BME280;64834;52.516;10.528;2023-05-24T05:11:04;101481.97;;;7.92;91.56
76108;BME280;64834;52.516;10.528;2023-05-24T05:13:30;101479.19;;;8.00;91.18
76108;BME280;64834;52.516;10.528;2023-05-24T05:15:55;101487.59;;;8.08;90.84
76108;BME280;64834;52.516;10.528;2023-05-24T05:18:20;101484.19;;;8.09;90.99
76108;BME280;64834;52.516;10.528;2023-05-24T05:20:46;101484.13;;;7.97;90.12
76108;BME280;64834;52.516;10.528;2023-05-24T05:23:11;101489.41;;;8.09;91.25
76108;BME280;64834;52.516;10.528;2023-05-24T05:25:36;101486.00;;;8.10;91.17
76108;BME280;64834;52.516;10.528;2023-05-24T05:28:02;101480.31;;;8.04;90.98
76108;BME280;64834;52.516;10.528;2023-05-24T05:30:27;101482.91;;;8.04;90.67
76108;BME280;64834;52.516;10.528;2023-05-24T05:32:52;101479.47;;;8.15;91.16
76108;BME280;64834;52.516;10.528;2023-05-24T05:35:18;101475.84;;;8.13;90.66
76108;BME280;64834;52.516;10.528;2023-05-24T05:37:43;101482.44;;;8.20;90.26
76108;BME280;64834;52.516;10.528;2023-05-24T05:40:08;101478.44;;;8.13;90.30
76108;BME280;64834;52.516;10.528;2023-05-24T05:42:34;101480.72;;;8.20;90.43
76108;BME280;64834;52.516;10.528;2023-05-24T05:44:59;101480.53;;;8.29;90.58
76108;BME280;64834;52.516;10.528;2023-05-24T05:47:25;101482.47;;;8.31;90.23
76108;BME280;64834;52.516;10.528;2023-05-24T05:49:50;101475.16;;;8.16;89.55
76108;BME280;64834;52.516;10.528;2023-05-24T05:52:15;101473.13;;;8.23;90.30
76108;BME280;64834;52.516;10.528;2023-05-24T05:54:41;101474.97;;;8.24;89.64
76108;BME280;64834;52.516;10.528;2023-05-24T05:57:06;101479.75;;;8.30;89.23
76108;BME280;64834;52.516;10.528;2023-05-24T05:59:34;101486.53;;;8.28;89.13
76108;BME280;64834;52.516;10.528;2023-05-24T06:02:00;101485.00;;;8.42;90.25
76108;BME280;64834;52.516;10.528;2023-05-24T06:04:26;101484.47;;;8.46;89.12
76108;BME280;64834;52.516;10.528;2023-05-24T06:06:51;101489.47;;;8.43;89.47
76108;BME280;64834;52.516;10.528;2023-05-24T06:09:16;101485.47;;;8.48;89.14
76108;BME280;64834;52.516;10.528;2023-05-24T06:11:41;101496.28;;;8.52;89.16
76108;BME280;64834;52.516;10.528;2023-05-24T06:14:09;101488.94;;;8.70;89.88
76108;BME280;64834;52.516;10.528;2023-05-24T06:16:36;101500.97;;;8.68;88.33
76108;BME280;64834;52.516;10.528;2023-05-24T06:19:06;101483.72;;;8.70;89.34
76108;BME280;64834;52.516;10.528;2023-05-24T06:21:31;101495.09;;;8.82;88.42
76108;BME280;64834;52.516;10.528;2023-05-24T06:23:57;101490.09;;;8.85;87.81
76108;BME280;64834;52.516;10.528;2023-05-24T06:26:23;101493.06;;;9.02;88.12
76108;BME280;64834;52.516;10.528;2023-05-24T06:28:50;101499.19;;;9.02;87.74
76108;BME280;64834;52.516;10.528;2023-05-24T06:31:16;101507.13;;;9.15;87.77
76108;BME280;64834;52.516;10.528;2023-05-24T06:33:41;101513.03;;;9.13;86.86
76108;BME280;64834;52.516;10.528;2023-05-24T06:36:06;101519.63;;;9.19;87.22
76108;BME280;64834;52.516;10.528;2023-05-24T06:38:31;101512.09;;;9.36;87.32
76108;BME280;64834;52.516;10.528;2023-05-24T06:40:57;101511.56;;;9.28;86.47
76108;BME280;64834;52.516;10.528;2023-05-24T06:43:22;101514.06;;;9.15;86.39
76108;BME280;64834;52.516;10.528;2023-05-24T06:45:47;101515.53;;;9.35;87.41
76108;BME280;64834;52.516;10.528;2023-05-24T06:48:13;101503.16;;;9.32;86.26
76108;BME280;64834;52.516;10.528;2023-05-24T06:50:38;101508.69;;;9.49;86.56
76108;BME280;64834;52.516;10.528;2023-05-24T06:53:03;101507.66;;;9.70;85.69
76108;BME280;64834;52.516;10.528;2023-05-24T06:55:29;101512.88;;;9.58;84.86
76108;BME280;64834;52.516;10.528;2023-05-24T06:57:55;101509.00;;;9.65;84.26
76108;BME280;64834;52.516;10.528;2023-05-24T07:00:20;101512.03;;;9.83;84.06
76108;BME280;64834;52.516;10.528;2023-05-24T07:02:46;101509.22;;;10.05;84.79
76108;BME280;64834;52.516;10.528;2023-05-24T07:05:11;101510.78;;;9.89;83.68
76108;BME280;64834;52.516;10.528;2023-05-24T07:07:38;101515.31;;;9.80;83.23
76108;BME280;64834;52.516;10.528;2023-05-24T07:10:05;101508.06;;;10.24;84.26
76108;BME280;64834;52.516;10.528;2023-05-24T07:12:31;101512.22;;;9.97;82.14
76108;BME280;64834;52.516;10.528;2023-05-24T07:14:56;101512.84;;;10.18;82.73
76108;BME280;64834;52.516;10.528;2023-05-24T07:17:22;101529.34;;;10.42;81.00
76108;BME280;64834;52.516;10.528;2023-05-24T07:19:47;101525.03;;;10.43;81.45
76108;BME280;64834;52.516;10.528;2023-05-24T07:22:12;101528.28;;;10.52;79.94
76108;BME280;64834;52.516;10.528;2023-05-24T07:24:37;101529.47;;;10.82;80.00
76108;BME280;64834;52.516;10.528;2023-05-24T07:27:03;101525.72;;;10.78;81.00
76108;BME280;64834;52.516;10.528;2023-05-24T07:29:29;101526.06;;;10.83;80.33
76108;BME280;64834;52.516;10.528;2023-05-24T07:31:54;101534.41;;;10.91;79.49
76108;BME280;64834;52.516;10.528;2023-05-24T07:34:20;101539.00;;;11.06;79.81
76108;BME280;64834;52.516;10.528;2023-05-24T07:36:46;101536.88;;;11.14;78.29
76108;BME280;64834;52.516;10.528;2023-05-24T07:39:13;101539.91;;;11.07;77.11
76108;BME280;64834;52.516;10.528;2023-05-24T07:41:40;101535.75;;;11.11;78.94
76108;BME280;64834;52.516;10.528;2023-05-24T07:44:05;101537.56;;;11.25;79.17
76108;BME280;64834;52.516;10.528;2023-05-24T07:46:31;101541.78;;;10.96;79.09
76108;BME280;64834;52.516;10.528;2023-05-24T07:48:56;101548.22;;;10.88;79.32
76108;BME280;64834;52.516;10.528;2023-05-24T07:51:22;101546.50;;;10.89;80.14
76108;BME280;64834;52.516;10.528;2023-05-24T07:53:47;101554.09;;;11.11;79.10
76108;BME280;64834;52.516;10.528;2023-05-24T07:56:12;101552.25;;;10.96;78.25
76108;BME280;64834;52.516;10.528;2023-05-24T07:58:37;101551.25;;;10.94;80.33
76108;BME280;64834;52.516;10.528;2023-05-24T08:01:05;101549.66;;;10.96;78.61
76108;BME280;64834;52.516;10.528;2023-05-24T08:03:30;101545.00;;;10.92;79.91
76108;BME280;64834;52.516;10.528;2023-05-24T08:05:56;101560.78;;;11.32;80.06
76108;BME280;64834;52.516;10.528;2023-05-24T08:08:22;101559.97;;;11.20;78.09
76108;BME280;64834;52.516;10.528;2023-05-24T08:10:47;101556.13;;;11.54;77.69
76108;BME280;64834;52.516;10.528;2023-05-24T08:13:12;101553.72;;;11.57;77.51
76108;BME280;64834;52.516;10.528;2023-05-24T08:15:38;101557.13;;;11.30;77.60
76108;BME280;64834;52.516;10.528;2023-05-24T08:18:03;101559.84;;;11.18;78.31
76108;BME280;64834;52.516;10.528;2023-05-24T08:20:29;101562.03;;;10.99;79.80
76108;BME280;64834;52.516;10.528;2023-05-24T08:22:55;101567.25;;;10.99;79.29
76108;BME280;64834;52.516;10.528;2023-05-24T08:25:20;101561.34;;;11.01;79.08
76108;BME280;64834;52.516;10.528;2023-05-24T08:27:45;101565.19;;;11.20;79.33
76108;BME280;64834;52.516;10.528;2023-05-24T08:30:12;101558.66;;;11.13;78.57
76108;BME280;64834;52.516;10.528;2023-05-24T08:32:41;101563.34;;;11.05;78.79
76108;BME280;64834;52.516;10.528;2023-05-24T08:35:06;101567.59;;;11.17;79.62
76108;BME280;64834;52.516;10.528;2023-05-24T08:37:32;101566.38;;;11.12;79.07
76108;BME280;64834;52.516;10.528;2023-05-24T08:39:57;101564.38;;;11.07;79.86
76108;BME280;64834;52.516;10.528;2023-05-24T08:42:24;101566.19;;;11.08;80.58
76108;BME280;64834;52.516;10.528;2023-05-24T08:44:57;101576.34;;;11.04;79.15
76108;BME280;64834;52.516;10.528;2023-05-24T08:47:24;101573.16;;;11.21;80.73
76108;BME280;64834;52.516;10.528;2023-05-24T08:49:51;101578.56;;;11.11;82.29
76108;BME280;64834;52.516;10.528;2023-05-24T08:52:17;101587.78;;;10.93;82.05
76108;BME280;64834;52.516;10.528;2023-05-24T08:54:45;101583.16;;;10.89;81.73
76108;BME280;64834;52.516;10.528;2023-05-24T08:57:11;101582.91;;;11.11;81.59
76108;BME280;64834;52.516;10.528;2023-05-24T08:59:40;101583.56;;;11.46;80.31
76108;BME280;64834;52.516;10.528;2023-05-24T09:02:08;101582.97;;;11.64;79.01
76108;BME280;64834;52.516;10.528;2023-05-24T09:04:37;101578.72;;;11.92;80.62
76108;BME280;64834;52.516;10.528;2023-05-24T09:07:03;101586.81;;;11.82;78.80
76108;BME280;64834;52.516;10.528;2023-05-24T09:09:30;101593.44;;;11.64;79.81
76108;BME280;64834;52.516;10.528;2023-05-24T09:12:01;101592.31;;;11.33;81.02
76108;BME280;64834;52.516;10.528;2023-05-24T09:14:28;101591.09;;;11.15;81.30
76108;BME280;64834;52.516;10.528;2023-05-24T09:16:55;101593.38;;;11.11;81.76
76108;BME280;64834;52.516;10.528;2023-05-24T09:19:21;101592.03;;;10.91;83.16
76108;BME280;64834;52.516;10.528;2023-05-24T09:21:48;101592.44;;;10.97;82.92
76108;BME280;64834;52.516;10.528;2023-05-24T09:24:14;101590.50;;;11.19;82.48
76108;BME280;64834;52.516;10.528;2023-05-24T09:26:40;101592.50;;;11.37;82.42
76108;BME280;64834;52.516;10.528;2023-05-24T09:29:06;101595.13;;;11.37;81.26
76108;BME280;64834;52.516;10.528;2023-05-24T09:31:33;101592.50;;;11.37;81.58
76108;BME280;64834;52.516;10.528;2023-05-24T09:33:58;101593.06;;;11.06;81.64
76108;BME280;64834;52.516;10.528;2023-05-24T09:36:24;101608.91;;;11.07;82.90
76108;BME280;64834;52.516;10.528;2023-05-24T09:39:04;101590.97;;;11.14;82.35
76108;BME280;64834;52.516;10.528;2023-05-24T09:41:31;101598.09;;;11.03;83.08
76108;BME280;64834;52.516;10.528;2023-05-24T09:43:56;101591.97;;;11.16;83.99
76108;BME280;64834;52.516;10.528;2023-05-24T09:46:22;101599.19;;;11.31;82.43
76108;BME280;64834;52.516;10.528;2023-05-24T09:48:57;101593.72;;;11.42;81.18
76108;BME280;64834;52.516;10.528;2023-05-24T09:51:22;101592.41;;;11.61;81.70
76108;BME280;64834;52.516;10.528;2023-05-24T09:53:48;101597.25;;;11.55;81.42
76108;BME280;64834;52.516;10.528;2023-05-24T09:56:17;101600.09;;;11.58;81.21
76108;BME280;64834;52.516;10.528;2023-05-24T09:58:43;101600.50;;;11.65;80.84
76108;BME280;64834;52.516;10.528;2023-05-24T10:01:09;101601.09;;;11.60;81.71
76108;BME280;64834;52.516;10.528;2023-05-24T10:03:35;101603.00;;;11.50;80.77
76108;BME280;64834;52.516;10.528;2023-05-24T10:06:05;101604.03;;;11.52;80.78
76108;BME280;64834;52.516;10.528;2023-05-24T10:08:33;101604.22;;;11.55;81.32
76108;BME280;64834;52.516;10.528;2023-05-24T10:11:01;101606.16;;;11.44;81.58
76108;BME280;64834;52.516;10.528;2023-05-24T10:13:28;101606.75;;;11.53;80.83
76108;BME280;64834;52.516;10.528;2023-05-24T10:15:53;101600.91;;;11.44;81.38
76108;BME280;64834;52.516;10.528;2023-05-24T10:18:19;101603.41;;;11.43;81.78
76108;BME280;64834;52.516;10.528;2023-05-24T10:20:44;101608.03;;;11.47;82.84
76108;BME280;64834;52.516;10.528;2023-05-24T10:23:14;101607.31;;;11.36;82.15
76108;BME280;64834;52.516;10.528;2023-05-24T10:25:45;101607.66;;;11.54;81.10
76108;BME280;64834;52.516;10.528;2023-05-24T10:28:15;101603.78;;;11.75;80.37
76108;BME280;64834;52.516;10.528;2023-05-24T10:30:48;101611.59;;;11.87;80.93
76108;BME280;64834;52.516;10.528;2023-05-24T10:33:15;101618.78;;;11.90;80.65
76108;BME280;64834;52.516;10.528;2023-05-24T10:35:42;101611.38;;;11.71;81.10
76108;BME280;64834;52.516;10.528;2023-05-24T10:38:08;101619.28;;;11.84;82.18
76108;BME280;64834;52.516;10.528;2023-05-24T10:40:34;101619.34;;;11.72;81.42
76108;BME280;64834;52.516;10.528;2023-05-24T10:43:05;101613.31;;;11.86;80.75
76108;BME280;64834;52.516;10.528;2023-05-24T10:45:38;101611.38;;;12.10;79.18
76108;BME280;64834;52.516;10.528;2023-05-24T10:50:52;101622.91;;;12.40;77.94
76108;BME280;64834;52.516;10.528;2023-05-24T10:53:19;101618.19;;;12.35;79.02
76108;BME280;64834;52.516;10.528;2023-05-24T10:58:18;101632.94;;;12.33;78.91
76108;BME280;64834;52.516;10.528;2023-05-24T11:00:44;101626.63;;;12.44;79.90
76108;BME280;64834;52.516;10.528;2023-05-24T11:03:10;101630.00;;;12.28;79.19
76108;BME280;64834;52.516;10.528;2023-05-24T11:08:11;101630.94;;;12.15;78.81
76108;BME280;64834;52.516;10.528;2023-05-24T11:10:37;101632.13;;;12.34;80.80
76108;BME280;64834;52.516;10.528;2023-05-24T11:13:06;101632.13;;;12.34;78.20
76108;BME280;64834;52.516;10.528;2023-05-24T11:15:33;101632.19;;;12.35;78.53
76108;BME280;64834;52.516;10.528;2023-05-24T11:20:34;101631.50;;;12.25;79.31
76108;BME280;64834;52.516;10.528;2023-05-24T11:23:05;101631.41;;;12.23;79.74
76108;BME280;64834;52.516;10.528;2023-05-24T11:25:32;101626.28;;;12.11;81.00
76108;BME280;64834;52.516;10.528;2023-05-24T11:27:58;101627.59;;;12.18;79.85
76108;BME280;64834;52.516;10.528;2023-05-24T11:30:23;101624.44;;;12.24;79.10
76108;BME280;64834;52.516;10.528;2023-05-24T11:32:48;101624.84;;;12.30;78.96
76108;BME280;64834;52.516;10.528;2023-05-24T11:35:14;101623.25;;;12.19;80.49
76108;BME280;64834;52.516;10.528;2023-05-24T11:37:40;101619.13;;;12.22;80.93
76108;BME280;64834;52.516;10.528;2023-05-24T11:40:07;101627.31;;;12.13;80.38
76108;BME280;64834;52.516;10.528;2023-05-24T11:42:34;101624.88;;;12.17;80.30
76108;BME280;64834;52.516;10.528;2023-05-24T11:45:02;101633.66;;;12.17;80.54
76108;BME280;64834;52.516;10.528;2023-05-24T11:47:28;101629.72;;;12.10;81.49
76108;BME280;64834;52.516;10.528;2023-05-24T11:49:54;101641.00;;;12.23;80.14
76108;BME280;64834;52.516;10.528;2023-05-24T11:52:19;101640.06;;;12.35;80.08
76108;BME280;64834;52.516;10.528;2023-05-24T11:54:44;101637.56;;;12.24;81.30
76108;BME280;64834;52.516;10.528;2023-05-24T11:57:13;101634.53;;;12.31;80.37
76108;BME280;64834;52.516;10.528;2023-05-24T11:59:40;101633.72;;;12.45;80.17
76108;BME280;64834;52.516;10.528;2023-05-24T12:02:06;101645.91;;;12.73;78.94
76108;BME280;64834;52.516;10.528;2023-05-24T12:04:34;101643.47;;;12.76;78.42
76108;BME280;64834;52.516;10.528;2023-05-24T12:07:00;101638.19;;;13.04;79.26
76108;BME280;64834;52.516;10.528;2023-05-24T12:09:26;101635.47;;;13.02;77.44
76108;BME280;64834;52.516;10.528;2023-05-24T12:11:54;101630.22;;;13.02;77.69
76108;BME280;64834;52.516;10.528;2023-05-24T12:14:23;101632.03;;;13.03;77.60
76108;BME280;64834;52.516;10.528;2023-05-24T12:16:54;101631.22;;;13.04;77.54
76108;BME280;64834;52.516;10.528;2023-05-24T12:19:23;101625.72;;;13.14;77.91
76108;BME280;64834;52.516;10.528;2023-05-24T12:21:56;101623.13;;;12.86;78.70
76108;BME280;64834;52.516;10.528;2023-05-24T12:24:22;101625.44;;;13.10;77.32
76108;BME280;64834;52.516;10.528;2023-05-24T12:26:48;101617.75;;;13.42;77.38
76108;BME280;64834;52.516;10.528;2023-05-24T12:29:14;101624.25;;;13.64;75.56
76108;BME280;64834;52.516;10.528;2023-05-24T12:31:40;101623.88;;;13.87;73.98
76108;BME280;64834;52.516;10.528;2023-05-24T12:34:11;101609.97;;;14.52;72.34
76108;BME280;64834;52.516;10.528;2023-05-24T12:36:37;101614.91;;;14.62;72.91
76108;BME280;64834;52.516;10.528;2023-05-24T12:39:26;101607.81;;;14.94;68.38
76108;BME280;64834;52.516;10.528;2023-05-24T12:42:01;101612.09;;;14.92;68.75
76108;BME280;64834;52.516;10.528;2023-05-24T12:44:31;101620.69;;;14.24;69.91
76108;BME280;64834;52.516;10.528;2023-05-24T12:46:57;101616.81;;;14.48;69.09
76108;BME280;64834;52.516;10.528;2023-05-24T12:49:23;101622.00;;;14.01;69.76
76108;BME280;64834;52.516;10.528;2023-05-24T12:51:49;101621.59;;;14.24;69.80
76108;BME280;64834;52.516;10.528;2023-05-24T12:54:21;101613.47;;;14.05;70.00
76108;BME280;64834;52.516;10.528;2023-05-24T12:56:46;101614.28;;;13.73;72.77
76108;BME280;64834;52.516;10.528;2023-05-24T12:59:12;101623.00;;;13.57;74.72